createdAt,value
2019-03-25T00:00:39.892Z,50.99
2019-03-25T00:03:08.363Z,50.63
2019-03-25T00:05:35.025Z,51.49
2019-03-25T00:08:01.683Z,51.47
2019-03-25T00:10:28.423Z,51.49
2019-03-25T00:12:55.074Z,52.06
2019-03-25T00:15:21.807Z,52.30
2019-03-25T00:17:48.520Z,51.84
2019-03-25T00:20:15.169Z,52.24
2019-03-25T00:22:41.909Z,52.52
2019-03-25T00:25:08.589Z,52.37
2019-03-25T00:27:35.296Z,52.47
2019-03-25T00:30:02.009Z,53.07
2019-03-25T00:32:29.846Z,53.05
2019-03-25T00:34:56.443Z,53.13
2019-03-25T00:37:23.143Z,53.40
2019-03-25T00:39:49.896Z,53.79
2019-03-25T00:42:16.651Z,53.39
2019-03-25T00:44:43.339Z,53.78
2019-03-25T00:47:10.074Z,53.59
2019-03-25T00:49:36.714Z,54.15
2019-03-25T00:52:03.392Z,54.41
2019-03-25T00:54:30.123Z,54.33
2019-03-25T00:56:56.728Z,54.77
2019-03-25T00:59:23.361Z,55.27
2019-03-25T01:01:50.060Z,56.16
2019-03-25T01:04:16.686Z,56.48
2019-03-25T01:06:43.311Z,56.61
2019-03-25T01:09:09.984Z,56.45
2019-03-25T01:11:36.608Z,56.36
2019-03-25T01:14:03.249Z,57.17
2019-03-25T01:16:29.947Z,57.65
2019-03-25T01:18:56.570Z,57.92
2019-03-25T01:21:23.195Z,58.35
2019-03-25T01:23:49.887Z,57.37
2019-03-25T01:26:16.590Z,57.37
2019-03-25T01:28:43.349Z,57.87
2019-03-25T01:31:10.068Z,58.13
2019-03-25T01:33:36.678Z,58.33
2019-03-25T01:36:03.357Z,58.08
2019-03-25T01:38:30.053Z,57.92
2019-03-25T01:40:57.633Z,58.06
2019-03-25T01:43:24.343Z,57.70
2019-03-25T01:45:51.071Z,57.79
2019-03-25T01:48:17.680Z,57.52
2019-03-25T01:50:44.381Z,57.27
2019-03-25T01:53:11.087Z,57.19
2019-03-25T01:55:37.754Z,57.53
2019-03-25T01:58:04.457Z,57.59
2019-03-25T02:00:31.139Z,57.36
2019-03-25T02:02:57.916Z,57.64
2019-03-25T02:05:24.555Z,57.64
2019-03-25T02:07:51.275Z,57.77
2019-03-25T02:10:18.025Z,57.55
2019-03-25T02:12:44.714Z,57.58
2019-03-25T02:15:14.233Z,57.85
2019-03-25T02:17:41.014Z,58.40
2019-03-25T02:20:07.986Z,57.56
2019-03-25T02:22:34.783Z,58.31
2019-03-25T02:25:01.929Z,58.50
2019-03-25T02:27:28.557Z,58.34
2019-03-25T02:29:55.376Z,58.49
2019-03-25T02:32:22.030Z,58.53
2019-03-25T02:34:48.698Z,58.28
2019-03-25T02:37:15.499Z,58.39
2019-03-25T02:39:42.123Z,58.98
2019-03-25T02:42:08.955Z,59.81
2019-03-25T02:44:35.645Z,59.47
2019-03-25T02:47:02.355Z,59.53
2019-03-25T02:49:29.090Z,59.85
2019-03-25T02:51:55.874Z,60.43
2019-03-25T02:54:22.531Z,61.13
2019-03-25T02:56:49.220Z,61.21
2019-03-25T02:59:15.895Z,61.63
2019-03-25T03:01:42.655Z,62.01
2019-03-25T03:04:09.363Z,61.70
2019-03-25T03:06:36.097Z,61.39
2019-03-25T03:09:05.317Z,61.97
2019-03-25T03:11:33.020Z,61.85
2019-03-25T03:13:59.724Z,61.64
2019-03-25T03:16:26.453Z,61.80
2019-03-25T03:18:53.183Z,61.98
2019-03-25T03:21:19.905Z,61.15
2019-03-25T03:23:46.532Z,61.23
2019-03-25T03:26:13.265Z,61.17
2019-03-25T03:28:39.960Z,61.11
2019-03-25T03:31:06.765Z,60.96
2019-03-25T03:33:33.609Z,61.60
2019-03-25T03:36:01.329Z,62.08
2019-03-25T03:38:27.961Z,63.29
2019-03-25T03:40:54.728Z,62.87
2019-03-25T03:43:21.516Z,62.89
2019-03-25T03:45:48.258Z,62.37
2019-03-25T03:48:14.970Z,62.02
2019-03-25T03:50:41.770Z,62.71
2019-03-25T03:53:08.603Z,62.62
2019-03-25T03:55:37.880Z,62.71
2019-03-25T03:58:06.678Z,62.62
2019-03-25T04:00:33.709Z,63.00
2019-03-25T04:03:00.391Z,63.69
2019-03-25T04:05:27.429Z,63.80
2019-03-25T04:07:54.040Z,63.16
2019-03-25T04:10:20.759Z,62.87
2019-03-25T04:12:47.447Z,62.19
2019-03-25T04:15:23.774Z,62.13
2019-03-25T04:17:50.420Z,62.23
2019-03-25T04:20:17.143Z,62.20
2019-03-25T04:22:43.750Z,62.51
2019-03-25T04:25:10.446Z,62.90
2019-03-25T04:27:37.147Z,63.50
2019-03-25T04:30:04.386Z,63.79
2019-03-25T04:32:31.235Z,63.35
2019-03-25T04:34:58.101Z,63.74
2019-03-25T04:37:24.869Z,63.31
2019-03-25T04:39:51.664Z,64.03
2019-03-25T04:42:18.401Z,64.69
2019-03-25T04:44:46.059Z,65.38
2019-03-25T04:47:12.796Z,64.36
2019-03-25T04:49:39.648Z,64.65
2019-03-25T04:52:06.275Z,64.29
2019-03-25T04:54:33.027Z,64.70
2019-03-25T04:56:59.761Z,65.11
2019-03-25T04:59:26.499Z,65.08
2019-03-25T05:01:53.243Z,65.04
2019-03-25T05:04:21.100Z,65.21
2019-03-25T05:06:47.736Z,65.61
2019-03-25T05:09:14.585Z,65.59
2019-03-25T05:11:41.331Z,65.57
2019-03-25T05:14:08.167Z,65.60
2019-03-25T05:16:34.900Z,65.16
2019-03-25T05:19:01.747Z,66.22
2019-03-25T05:21:28.487Z,66.18
2019-03-25T05:23:55.219Z,65.98
2019-03-25T05:26:21.898Z,65.29
2019-03-25T05:28:48.703Z,65.23
2019-03-25T05:31:15.436Z,65.15
2019-03-25T05:33:42.288Z,65.51
2019-03-25T05:36:09.027Z,65.46
2019-03-25T05:38:35.671Z,65.54
2019-03-25T05:41:02.982Z,65.67
2019-03-25T05:43:29.654Z,66.18
2019-03-25T05:45:57.309Z,65.84
2019-03-25T05:48:24.053Z,65.73
2019-03-25T05:50:50.692Z,65.54
2019-03-25T05:53:17.431Z,65.92
2019-03-25T05:55:44.170Z,65.66
2019-03-25T05:58:10.800Z,65.27
2019-03-25T06:00:38.365Z,65.04
2019-03-25T06:03:05.105Z,64.84
2019-03-25T06:05:31.845Z,64.56
2019-03-25T06:07:58.586Z,65.26
2019-03-25T06:10:25.327Z,65.26
2019-03-25T06:12:52.065Z,64.00
2019-03-25T06:15:18.797Z,63.66
2019-03-25T06:17:45.639Z,64.40
2019-03-25T06:20:12.583Z,62.89
2019-03-25T06:22:39.320Z,61.84
2019-03-25T06:25:06.644Z,62.14
2019-03-25T06:27:33.322Z,60.78
2019-03-25T06:30:00.061Z,61.00
2019-03-25T06:32:26.790Z,60.02
2019-03-25T06:34:53.394Z,59.30
2019-03-25T06:37:20.064Z,58.37
2019-03-25T06:39:46.907Z,57.78
2019-03-25T06:42:13.756Z,56.39
2019-03-25T06:44:40.487Z,56.71
2019-03-25T06:47:07.266Z,56.73
2019-03-25T06:49:34.066Z,56.84
2019-03-25T06:52:00.917Z,56.45
2019-03-25T06:54:27.766Z,55.91
2019-03-25T06:56:54.497Z,55.75
2019-03-25T06:59:21.167Z,55.97
2019-03-25T07:01:47.869Z,55.68
2019-03-25T07:04:14.647Z,55.23
2019-03-25T07:06:41.446Z,55.75
2019-03-25T07:09:08.165Z,55.24
2019-03-25T07:11:35.099Z,55.63
2019-03-25T07:14:01.728Z,54.79
2019-03-25T07:16:28.515Z,55.15
2019-03-25T07:18:55.153Z,55.56
2019-03-25T07:21:21.787Z,55.67
2019-03-25T07:23:48.539Z,54.79
2019-03-25T07:26:15.271Z,54.70
2019-03-25T07:28:41.882Z,54.83
2019-03-25T07:31:08.648Z,54.34
2019-03-25T07:33:35.276Z,54.72
2019-03-25T07:36:02.023Z,54.34
2019-03-25T07:38:28.763Z,55.00
2019-03-25T07:40:55.394Z,53.64
2019-03-25T07:43:22.030Z,53.56
2019-03-25T07:45:51.395Z,55.01
2019-03-25T07:48:18.480Z,55.03
2019-03-25T07:50:45.217Z,53.22
2019-03-25T07:53:11.927Z,52.99
2019-03-25T07:55:38.545Z,52.92
2019-03-25T07:58:05.279Z,52.54
2019-03-25T08:00:31.965Z,52.86
2019-03-25T08:02:59.937Z,52.80
2019-03-25T08:05:26.706Z,52.44
2019-03-25T08:07:53.431Z,52.79
2019-03-25T08:10:31.945Z,52.01
2019-03-25T08:12:59.862Z,51.86
2019-03-25T08:15:26.713Z,52.92
2019-03-25T08:17:53.496Z,52.12
2019-03-25T08:20:20.336Z,52.58
2019-03-25T08:22:47.015Z,53.25
2019-03-25T08:25:13.758Z,51.13
2019-03-25T08:27:40.426Z,50.08
2019-03-25T08:30:08.721Z,50.52
2019-03-25T08:32:35.978Z,49.50
2019-03-25T08:35:04.511Z,50.19
2019-03-25T08:37:31.291Z,49.51
2019-03-25T08:39:57.954Z,49.00
2019-03-25T08:42:24.673Z,50.46
2019-03-25T08:44:51.387Z,50.53
2019-03-25T08:47:18.017Z,48.39
2019-03-25T08:49:45.534Z,49.83
2019-03-25T08:52:12.522Z,49.62
2019-03-25T08:54:39.182Z,48.14
2019-03-25T08:57:05.865Z,48.82
2019-03-25T08:59:32.567Z,49.25
2019-03-25T09:01:59.210Z,49.41
2019-03-25T09:04:25.887Z,50.04
2019-03-25T09:06:53.598Z,47.35
2019-03-25T09:09:20.335Z,47.99
2019-03-25T09:11:47.133Z,47.84
2019-03-25T09:14:13.857Z,46.75
2019-03-25T09:16:40.483Z,48.25
2019-03-25T09:19:07.147Z,46.62
2019-03-25T09:21:33.847Z,47.00
2019-03-25T09:24:00.658Z,48.24
2019-03-25T09:26:27.364Z,47.94
2019-03-25T09:28:54.082Z,48.15
2019-03-25T09:31:20.791Z,48.32
2019-03-25T09:33:47.554Z,47.36
2019-03-25T09:36:15.130Z,46.52
2019-03-25T09:38:41.867Z,48.68
2019-03-25T09:41:08.863Z,47.25
2019-03-25T09:43:35.683Z,46.85
2019-03-25T09:46:02.413Z,46.68
2019-03-25T09:48:29.085Z,47.28
2019-03-25T09:50:55.865Z,46.38
2019-03-25T09:53:22.511Z,45.34
2019-03-25T09:55:49.258Z,44.92
2019-03-25T09:58:16.034Z,45.11
2019-03-25T10:00:42.674Z,44.16
2019-03-25T10:03:09.320Z,44.97
2019-03-25T10:05:36.065Z,44.48
2019-03-25T10:08:02.686Z,44.64
2019-03-25T10:10:29.382Z,45.24
2019-03-25T10:12:56.884Z,45.73
2019-03-25T10:15:23.770Z,45.67
2019-03-25T10:17:50.406Z,44.92
2019-03-25T10:20:17.151Z,44.97
2019-03-25T10:22:43.811Z,43.24
2019-03-25T10:25:11.575Z,45.09
2019-03-25T10:27:38.320Z,44.86
2019-03-25T10:30:09.598Z,44.20
2019-03-25T10:32:36.332Z,44.03
2019-03-25T10:35:04.515Z,43.25
2019-03-25T10:37:31.119Z,43.91
2019-03-25T10:39:57.837Z,43.80
2019-03-25T10:42:24.627Z,44.33
2019-03-25T10:44:52.326Z,43.67
2019-03-25T10:47:19.065Z,42.59
2019-03-25T10:49:45.804Z,42.49
2019-03-25T10:52:13.513Z,42.22
2019-03-25T10:54:40.184Z,42.23
2019-03-25T10:57:06.926Z,43.62
2019-03-25T10:59:33.610Z,41.72
2019-03-25T11:02:00.271Z,44.02
2019-03-25T11:04:26.983Z,44.22
2019-03-25T11:06:53.631Z,41.12
2019-03-25T11:09:20.322Z,41.72
2019-03-25T11:11:47.015Z,42.76
2019-03-25T11:14:13.650Z,43.19
2019-03-25T11:16:40.317Z,43.26
2019-03-25T11:19:07.051Z,43.61
2019-03-25T11:21:33.681Z,42.97
2019-03-25T11:24:00.358Z,42.74
2019-03-25T11:26:27.087Z,42.25
2019-03-25T11:28:54.245Z,42.72
2019-03-25T11:31:20.939Z,42.45
2019-03-25T11:33:47.651Z,43.64
2019-03-25T11:36:14.687Z,42.76
2019-03-25T11:38:41.409Z,42.30
2019-03-25T11:41:08.119Z,42.85
2019-03-25T11:43:34.737Z,43.31
2019-03-25T11:46:01.435Z,42.31
2019-03-25T11:48:28.143Z,42.48
2019-03-25T11:50:54.962Z,44.45
2019-03-25T11:53:21.705Z,43.53
2019-03-25T11:55:48.447Z,43.01
2019-03-25T11:58:15.047Z,43.36
2019-03-25T12:00:41.687Z,43.39
2019-03-25T12:03:08.425Z,42.56
2019-03-25T12:05:35.055Z,43.73
2019-03-25T12:08:02.656Z,41.88
2019-03-25T12:10:29.353Z,43.18
2019-03-25T12:12:55.982Z,41.90
2019-03-25T12:15:22.588Z,43.32
2019-03-25T12:17:49.302Z,43.08
2019-03-25T12:20:15.907Z,44.24
2019-03-25T12:22:42.581Z,43.28
2019-03-25T12:25:09.475Z,43.83
2019-03-25T12:27:36.094Z,44.08
2019-03-25T12:30:05.114Z,42.44
2019-03-25T12:32:31.779Z,43.27
2019-03-25T12:34:58.488Z,43.75
2019-03-25T12:37:25.146Z,43.83
2019-03-25T12:39:51.889Z,42.55
2019-03-25T12:42:18.522Z,42.37
2019-03-25T12:44:45.226Z,43.01
2019-03-25T12:47:11.914Z,43.13
2019-03-25T12:49:38.578Z,41.41
2019-03-25T12:52:05.213Z,40.57
2019-03-25T12:54:32.063Z,41.89
2019-03-25T12:56:58.780Z,42.13
2019-03-25T12:59:25.488Z,42.41
2019-03-25T13:01:53.368Z,40.93
2019-03-25T13:04:20.258Z,40.52
2019-03-25T13:06:46.999Z,41.38
2019-03-25T13:09:13.678Z,41.24
2019-03-25T13:11:40.446Z,41.95
2019-03-25T13:14:07.150Z,41.86
2019-03-25T13:16:33.870Z,41.34
2019-03-25T13:19:00.472Z,42.14
2019-03-25T13:21:27.164Z,43.22
2019-03-25T13:23:53.869Z,42.96
2019-03-25T13:26:20.593Z,40.84
2019-03-25T13:28:47.295Z,42.13
2019-03-25T13:31:14.003Z,41.64
2019-03-25T13:33:40.658Z,40.20
2019-03-25T13:36:07.394Z,40.98
2019-03-25T13:38:34.131Z,40.83
2019-03-25T13:41:00.759Z,40.97
2019-03-25T13:43:27.362Z,40.69
2019-03-25T13:46:04.801Z,39.90
2019-03-25T13:48:22.567Z,41.77
2019-03-25T13:50:49.197Z,40.86
2019-03-25T13:53:15.986Z,41.86
2019-03-25T13:55:42.618Z,38.31
2019-03-25T13:58:09.293Z,39.25
2019-03-25T14:00:37.096Z,40.14
2019-03-25T14:03:03.722Z,38.04
2019-03-25T14:05:30.354Z,39.10
2019-03-25T14:07:57.044Z,37.97
2019-03-25T14:10:23.747Z,37.80
2019-03-25T14:12:51.960Z,40.26
2019-03-25T14:15:18.934Z,36.61
2019-03-25T14:17:45.570Z,37.98
2019-03-25T14:20:12.249Z,38.17
2019-03-25T14:22:38.955Z,39.78
2019-03-25T14:25:05.702Z,37.54
2019-03-25T14:27:32.349Z,37.94
2019-03-25T14:29:59.101Z,40.33
2019-03-25T14:32:25.706Z,41.43
2019-03-25T14:34:52.393Z,38.15
2019-03-25T14:37:19.084Z,39.84
2019-03-25T14:39:45.734Z,39.63
2019-03-25T14:42:12.514Z,37.86
2019-03-25T14:44:39.239Z,38.62
2019-03-25T14:47:05.976Z,37.95
2019-03-25T14:49:32.690Z,39.15
2019-03-25T14:51:59.528Z,39.68
2019-03-25T14:54:26.169Z,40.14
2019-03-25T14:56:52.842Z,40.80
2019-03-25T14:59:20.443Z,40.89
2019-03-25T15:01:47.151Z,40.67
2019-03-25T15:04:13.855Z,41.07
2019-03-25T15:06:40.679Z,40.79
2019-03-25T15:09:07.527Z,41.19
2019-03-25T15:11:35.074Z,41.24
2019-03-25T15:14:02.093Z,41.21
2019-03-25T15:16:28.726Z,40.61
2019-03-25T15:18:55.352Z,41.34
2019-03-25T15:21:22.108Z,40.52
2019-03-25T15:23:48.710Z,41.94
2019-03-25T15:26:15.338Z,42.30
2019-03-25T15:28:42.010Z,42.40
2019-03-25T15:31:08.619Z,42.97
2019-03-25T15:33:35.292Z,43.51
2019-03-25T15:36:02.028Z,46.17
2019-03-25T15:38:28.655Z,43.73
2019-03-25T15:40:55.246Z,44.08
2019-03-25T15:43:22.926Z,44.14
2019-03-25T15:45:51.917Z,43.73
2019-03-25T15:48:18.207Z,44.18
2019-03-25T15:50:44.935Z,44.25
2019-03-25T15:53:11.543Z,44.58
2019-03-25T15:55:38.219Z,46.02
2019-03-25T15:58:05.027Z,46.80
2019-03-25T16:03:55.757Z,48.99
2019-03-25T16:06:22.528Z,50.18
2019-03-25T16:08:49.235Z,51.56
2019-03-25T16:11:15.934Z,52.94
2019-03-25T16:13:42.488Z,54.14
2019-03-25T16:16:09.141Z,54.99
2019-03-25T16:19:19.862Z,55.70
2019-03-25T16:21:46.576Z,56.83
2019-03-25T16:24:13.229Z,56.63
2019-03-25T16:26:39.904Z,57.19
2019-03-25T16:29:06.664Z,56.56
2019-03-25T16:31:33.354Z,57.16
2019-03-25T16:34:00.092Z,57.62
2019-03-25T16:36:26.699Z,57.89
2019-03-25T16:38:53.394Z,58.23
2019-03-25T16:41:20.157Z,58.70
2019-03-25T16:43:46.840Z,57.23
2019-03-25T16:46:13.473Z,57.30
2019-03-25T16:48:40.237Z,58.12
2019-03-25T16:51:06.827Z,60.86
2019-03-25T16:53:33.506Z,62.26
2019-03-25T16:56:00.181Z,63.50
2019-03-25T16:58:26.802Z,65.17
2019-03-25T17:00:53.443Z,65.22
2019-03-25T17:03:20.252Z,63.18
2019-03-25T17:05:46.961Z,65.28
2019-03-25T17:08:13.654Z,66.54
2019-03-25T17:10:40.375Z,67.26
2019-03-25T17:13:06.967Z,67.83
2019-03-25T17:15:33.632Z,68.32
2019-03-25T17:18:00.320Z,69.74
2019-03-25T17:20:27.057Z,70.23
2019-03-25T17:22:53.775Z,69.36
2019-03-25T17:25:20.496Z,70.14
2019-03-25T17:27:47.086Z,70.25
2019-03-25T17:30:15.149Z,70.20
2019-03-25T17:32:41.815Z,70.13
2019-03-25T17:35:08.532Z,70.72
2019-03-25T17:37:35.221Z,71.07
2019-03-25T17:40:02.028Z,72.24
2019-03-25T17:42:29.645Z,72.37
2019-03-25T17:44:56.318Z,72.51
2019-03-25T17:47:22.975Z,72.28
2019-03-25T17:49:49.612Z,72.73
2019-03-25T17:52:16.329Z,73.46
2019-03-25T17:54:43.120Z,71.68
2019-03-25T17:57:09.741Z,74.64
2019-03-25T17:59:36.396Z,74.18
2019-03-25T18:02:03.090Z,72.92
2019-03-25T18:04:29.745Z,72.18
2019-03-25T18:06:56.389Z,73.21
2019-03-25T18:09:23.109Z,73.37
2019-03-25T18:11:49.729Z,73.40
2019-03-25T18:14:16.418Z,72.98
2019-03-25T18:16:43.150Z,75.18
2019-03-25T18:19:09.750Z,73.03
2019-03-25T18:21:36.396Z,73.40
2019-03-25T18:24:03.122Z,74.46
2019-03-25T18:26:30.760Z,74.82
2019-03-25T18:28:57.386Z,73.27
2019-03-25T18:31:24.059Z,73.40
2019-03-25T18:33:50.734Z,74.21
2019-03-25T18:36:17.423Z,72.87
2019-03-25T18:38:44.111Z,72.21
2019-03-25T18:41:10.807Z,75.11
2019-03-25T18:43:37.511Z,76.17
2019-03-25T18:46:04.229Z,75.66
2019-03-25T18:48:30.808Z,74.98
2019-03-25T18:50:57.464Z,77.06
2019-03-25T18:53:24.160Z,77.67
2019-03-25T18:55:50.877Z,77.30
2019-03-25T18:58:17.605Z,76.69
2019-03-25T19:00:44.353Z,75.71
2019-03-25T19:03:10.987Z,76.22
2019-03-25T19:05:37.675Z,76.10
2019-03-25T19:08:04.765Z,76.05
2019-03-25T19:10:31.654Z,75.04
2019-03-25T19:12:58.374Z,75.74
2019-03-25T19:15:25.052Z,76.91
2019-03-25T19:17:51.747Z,75.92
2019-03-25T19:20:18.416Z,75.59
2019-03-25T19:22:45.205Z,76.95
2019-03-25T19:25:11.970Z,78.08
2019-03-25T19:27:38.651Z,80.26
2019-03-25T19:30:07.261Z,80.05
2019-03-25T19:32:33.908Z,80.60
2019-03-25T19:35:00.523Z,81.31
2019-03-25T19:37:27.235Z,80.28
2019-03-25T19:39:53.873Z,79.07
2019-03-25T19:42:20.632Z,80.73
2019-03-25T19:44:47.295Z,80.23
2019-03-25T19:47:13.912Z,80.84
2019-03-25T19:49:40.577Z,81.87
2019-03-25T19:52:09.506Z,81.56
2019-03-25T19:54:35.942Z,82.74
2019-03-25T19:57:02.663Z,83.07
2019-03-25T19:59:29.431Z,83.13
2019-03-25T20:01:56.161Z,84.27
2019-03-25T20:04:23.983Z,82.70
2019-03-25T20:06:51.657Z,82.88
2019-03-25T20:09:18.319Z,82.76
2019-03-25T20:11:45.066Z,82.73
2019-03-25T20:14:11.817Z,83.19
2019-03-25T20:16:38.542Z,84.15
2019-03-25T20:19:05.328Z,83.13
2019-03-25T20:21:32.078Z,83.53
2019-03-25T20:23:58.699Z,81.91
2019-03-25T20:26:25.494Z,82.68
2019-03-25T20:28:52.166Z,82.98
2019-03-25T20:31:18.918Z,83.78
2019-03-25T20:33:45.654Z,83.23
2019-03-25T20:36:12.360Z,82.54
2019-03-25T20:38:38.983Z,81.75
2019-03-25T20:41:05.700Z,83.28
2019-03-25T20:43:32.373Z,81.78
2019-03-25T20:45:59.101Z,82.00
2019-03-25T20:48:25.855Z,83.06
2019-03-25T20:50:52.620Z,83.56
2019-03-25T20:53:19.220Z,83.14
2019-03-25T20:55:45.939Z,83.15
2019-03-25T20:58:12.757Z,84.45
2019-03-25T21:00:51.101Z,84.09
2019-03-25T21:03:18.138Z,84.69
2019-03-25T21:05:44.887Z,83.73
2019-03-25T21:08:11.619Z,83.75
2019-03-25T21:10:39.307Z,84.83
2019-03-25T21:13:06.063Z,82.83
2019-03-25T21:15:32.767Z,82.62
2019-03-25T21:17:59.418Z,83.17
2019-03-25T21:20:26.082Z,82.15
2019-03-25T21:22:52.787Z,82.02
2019-03-25T21:25:19.520Z,81.84
2019-03-25T21:27:46.238Z,81.39
2019-03-25T21:30:12.990Z,80.99
2019-03-25T21:32:39.685Z,82.03
2019-03-25T21:35:06.673Z,81.20
2019-03-25T21:37:33.458Z,82.55
2019-03-25T21:40:00.074Z,83.20
2019-03-25T21:42:29.035Z,82.92
2019-03-25T21:44:55.313Z,82.87
2019-03-25T21:47:22.921Z,81.90
2019-03-25T21:49:49.728Z,81.20
2019-03-25T21:52:16.413Z,81.34
2019-03-25T21:54:43.058Z,80.79
2019-03-25T21:57:10.957Z,81.58
2019-03-25T21:59:37.723Z,81.03
2019-03-25T22:02:04.379Z,82.41
2019-03-25T22:04:32.073Z,82.12
2019-03-25T22:06:58.738Z,82.95
2019-03-25T22:09:25.406Z,83.06
2019-03-25T22:11:52.136Z,83.20
2019-03-25T22:14:18.745Z,81.73
2019-03-25T22:16:45.407Z,82.16
2019-03-25T22:19:12.107Z,82.64
2019-03-25T22:21:38.754Z,82.83
2019-03-25T22:24:05.381Z,82.37
2019-03-25T22:26:32.132Z,82.67
2019-03-25T22:28:58.787Z,82.08
2019-03-25T22:31:25.439Z,81.96
2019-03-25T22:33:52.129Z,81.76
2019-03-25T22:36:18.748Z,81.83
2019-03-25T22:38:45.450Z,82.07
2019-03-25T22:41:12.119Z,81.51
2019-03-25T22:43:38.829Z,80.78
2019-03-25T22:46:05.515Z,79.55
2019-03-25T22:48:32.242Z,80.12
2019-03-25T22:50:58.827Z,80.32
2019-03-25T22:53:25.487Z,80.50
2019-03-25T22:55:52.166Z,78.15
2019-03-25T22:58:18.880Z,79.62
2019-03-25T23:00:45.965Z,78.92
2019-03-25T23:03:12.687Z,78.24
2019-03-25T23:05:40.405Z,78.09
2019-03-25T23:08:07.037Z,79.00
2019-03-25T23:10:33.948Z,79.31
2019-03-25T23:13:00.538Z,80.51
2019-03-25T23:15:27.229Z,80.07
2019-03-25T23:17:53.921Z,78.31
2019-03-25T23:20:21.639Z,78.34
2019-03-25T23:22:48.328Z,78.28
2019-03-25T23:25:15.059Z,77.86
2019-03-25T23:27:42.771Z,78.10
2019-03-25T23:30:09.550Z,78.67
2019-03-25T23:32:36.240Z,79.22
2019-03-25T23:35:04.674Z,76.33
2019-03-25T23:37:31.362Z,77.96
2019-03-25T23:39:59.091Z,77.88
2019-03-25T23:42:25.771Z,77.83
2019-03-25T23:44:52.396Z,76.34
2019-03-25T23:47:19.200Z,76.03
2019-03-25T23:49:45.787Z,76.57
2019-03-25T23:52:12.474Z,78.50
2019-03-25T23:54:39.143Z,79.03
2019-03-25T23:57:05.764Z,77.46
2019-03-25T23:59:32.408Z,78.73
